sensor_id;sensor_type;location;lat;lon;timestamp;P1;durP1;ratioP1;P2;durP2;ratioP2
19782;SDS011;10051;40.294;-3.754;2024-03-29T00:02:02;1.27;;;1.00;;
19782;SDS011;10051;40.294;-3.754;2024-03-29T00:04:28;2.10;;;1.35;;
19782;SDS011;10051;40.294;-3.754;2024-03-29T00:06:54;1.35;;;1.13;;
19782;SDS011;10051;40.294;-3.754;2024-03-29T00:09:19;2.10;;;1.48;;
19782;SDS011;10051;40.294;-3.754;2024-03-29T00:11:45;2.58;;;1.98;;
19782;SDS011;10051;40.294;-3.754;2024-03-29T00:14:10;4.03;;;2.17;;
19782;SDS011;10051;40.294;-3.754;2024-03-29T00:16:36;4.03;;;2.78;;
19782;SDS011;10051;40.294;-3.754;2024-03-29T00:19:02;7.25;;;3.45;;
19782;SDS011;10051;40.294;-3.754;2024-03-29T00:21:27;6.47;;;4.85;;
19782;SDS011;10051;40.294;-3.754;2024-03-29T00:23:53;9.35;;;5.18;;
19782;SDS011;10051;40.294;-3.754;2024-03-29T00:26:18;8.45;;;4.45;;
19782;SDS011;10051;40.294;-3.754;2024-03-29T00:28:44;6.95;;;4.03;;
19782;SDS011;10051;40.294;-3.754;2024-03-29T00:31:10;6.65;;;3.95;;
19782;SDS011;10051;40.294;-3.754;2024-03-29T00:33:35;4.75;;;3.42;;
19782;SDS011;10051;40.294;-3.754;2024-03-29T00:36:01;4.45;;;3.15;;
19782;SDS011;10051;40.294;-3.754;2024-03-29T00:38:27;7.57;;;3.17;;
19782;SDS011;10051;40.294;-3.754;2024-03-29T00:40:52;4.72;;;2.22;;
19782;SDS011;10051;40.294;-3.754;2024-03-29T00:43:18;6.13;;;2.05;;
19782;SDS011;10051;40.294;-3.754;2024-03-29T00:45:44;7.38;;;1.80;;
19782;SDS011;10051;40.294;-3.754;2024-03-29T00:48:09;5.40;;;1.70;;
19782;SDS011;10051;40.294;-3.754;2024-03-29T00:50:35;6.30;;;1.70;;
19782;SDS011;10051;40.294;-3.754;2024-03-29T00:53:03;7.20;;;1.58;;
19782;SDS011;10051;40.294;-3.754;2024-03-29T00:55:29;8.00;;;1.33;;
19782;SDS011;10051;40.294;-3.754;2024-03-29T00:57:55;6.40;;;1.33;;
19782;SDS011;10051;40.294;-3.754;2024-03-29T01:00:21;6.15;;;1.40;;
19782;SDS011;10051;40.294;-3.754;2024-03-29T01:02:47;7.35;;;1.50;;
19782;SDS011;10051;40.294;-3.754;2024-03-29T01:05:12;5.18;;;1.50;;
19782;SDS011;10051;40.294;-3.754;2024-03-29T01:07:40;7.50;;;1.42;;
19782;SDS011;10051;40.294;-3.754;2024-03-29T01:10:06;6.00;;;1.02;;
19782;SDS011;10051;40.294;-3.754;2024-03-29T01:12:34;3.10;;;0.93;;
19782;SDS011;10051;40.294;-3.754;2024-03-29T01:15:04;3.63;;;0.95;;
19782;SDS011;10051;40.294;-3.754;2024-03-29T01:17:31;4.95;;;0.93;;
19782;SDS011;10051;40.294;-3.754;2024-03-29T01:19:57;2.60;;;0.80;;
19782;SDS011;10051;40.294;-3.754;2024-03-29T01:22:22;2.10;;;0.60;;
19782;SDS011;10051;40.294;-3.754;2024-03-29T01:24:48;2.15;;;0.50;;
19782;SDS011;10051;40.294;-3.754;2024-03-29T01:27:13;2.33;;;1.00;;
19782;SDS011;10051;40.294;-3.754;2024-03-29T01:29:39;3.53;;;0.70;;
19782;SDS011;10051;40.294;-3.754;2024-03-29T01:32:05;2.50;;;0.60;;
19782;SDS011;10051;40.294;-3.754;2024-03-29T01:34:31;1.15;;;0.60;;
19782;SDS011;10051;40.294;-3.754;2024-03-29T01:36:56;4.00;;;0.77;;
19782;SDS011;10051;40.294;-3.754;2024-03-29T01:39:22;1.67;;;0.70;;
19782;SDS011;10051;40.294;-3.754;2024-03-29T01:41:53;3.65;;;0.70;;
19782;SDS011;10051;40.294;-3.754;2024-03-29T01:44:19;2.60;;;0.60;;
19782;SDS011;10051;40.294;-3.754;2024-03-29T01:46:45;1.98;;;0.60;;
19782;SDS011;10051;40.294;-3.754;2024-03-29T01:49:12;0.55;;;0.50;;
19782;SDS011;10051;40.294;-3.754;2024-03-29T01:51:39;0.55;;;0.43;;
19782;SDS011;10051;40.294;-3.754;2024-03-29T01:54:05;1.38;;;0.43;;
19782;SDS011;10051;40.294;-3.754;2024-03-29T01:56:34;1.45;;;0.40;;
19782;SDS011;10051;40.294;-3.754;2024-03-29T01:59:00;0.47;;;0.40;;
19782;SDS011;10051;40.294;-3.754;2024-03-29T02:01:28;1.58;;;0.30;;
19782;SDS011;10051;40.294;-3.754;2024-03-29T02:03:55;0.88;;;0.30;;
19782;SDS011;10051;40.294;-3.754;2024-03-29T02:06:21;0.30;;;0.20;;
19782;SDS011;10051;40.294;-3.754;2024-03-29T02:08:49;0.93;;;0.30;;
19782;SDS011;10051;40.294;-3.754;2024-03-29T02:11:16;0.52;;;0.30;;
19782;SDS011;10051;40.294;-3.754;2024-03-29T02:13:42;0.30;;;0.20;;
19782;SDS011;10051;40.294;-3.754;2024-03-29T02:16:09;1.15;;;0.30;;
19782;SDS011;10051;40.294;-3.754;2024-03-29T02:18:35;0.82;;;0.30;;
19782;SDS011;10051;40.294;-3.754;2024-03-29T02:21:00;0.50;;;0.35;;
19782;SDS011;10051;40.294;-3.754;2024-03-29T02:23:26;0.20;;;0.20;;
19782;SDS011;10051;40.294;-3.754;2024-03-29T02:25:56;0.20;;;0.20;;
19782;SDS011;10051;40.294;-3.754;2024-03-29T02:28:22;0.43;;;0.20;;
19782;SDS011;10051;40.294;-3.754;2024-03-29T02:30:49;0.50;;;0.20;;
19782;SDS011;10051;40.294;-3.754;2024-03-29T02:33:16;0.22;;;0.22;;
19782;SDS011;10051;40.294;-3.754;2024-03-29T02:35:42;1.65;;;0.30;;
19782;SDS011;10051;40.294;-3.754;2024-03-29T02:38:08;1.65;;;0.20;;
19782;SDS011;10051;40.294;-3.754;2024-03-29T02:40:33;0.40;;;0.20;;
19782;SDS011;10051;40.294;-3.754;2024-03-29T02:42:59;0.40;;;0.30;;
19782;SDS011;10051;40.294;-3.754;2024-03-29T02:45:24;0.20;;;0.20;;
19782;SDS011;10051;40.294;-3.754;2024-03-29T02:47:50;0.22;;;0.13;;
19782;SDS011;10051;40.294;-3.754;2024-03-29T02:50:16;0.77;;;0.25;;
19782;SDS011;10051;40.294;-3.754;2024-03-29T02:52:42;0.73;;;0.22;;
19782;SDS011;10051;40.294;-3.754;2024-03-29T02:55:08;0.40;;;0.25;;
19782;SDS011;10051;40.294;-3.754;2024-03-29T02:57:35;0.20;;;0.20;;
19782;SDS011;10051;40.294;-3.754;2024-03-29T03:00:02;0.35;;;0.20;;
19782;SDS011;10051;40.294;-3.754;2024-03-29T03:02:28;0.50;;;0.30;;
19782;SDS011;10051;40.294;-3.754;2024-03-29T03:04:54;0.22;;;0.20;;
19782;SDS011;10051;40.294;-3.754;2024-03-29T03:07:19;0.30;;;0.20;;
19782;SDS011;10051;40.294;-3.754;2024-03-29T03:10:03;0.57;;;0.40;;
19782;SDS011;10051;40.294;-3.754;2024-03-29T03:12:47;1.00;;;0.57;;
19782;SDS011;10051;40.294;-3.754;2024-03-29T03:15:13;1.40;;;0.55;;
19782;SDS011;10051;40.294;-3.754;2024-03-29T03:17:39;0.55;;;0.50;;
19782;SDS011;10051;40.294;-3.754;2024-03-29T03:20:04;0.70;;;0.30;;
19782;SDS011;10051;40.294;-3.754;2024-03-29T03:22:31;0.57;;;0.40;;
19782;SDS011;10051;40.294;-3.754;2024-03-29T03:25:00;1.02;;;0.40;;
19782;SDS011;10051;40.294;-3.754;2024-03-29T03:27:26;1.45;;;0.50;;
19782;SDS011;10051;40.294;-3.754;2024-03-29T03:29:52;1.10;;;0.50;;
19782;SDS011;10051;40.294;-3.754;2024-03-29T03:32:17;1.35;;;0.55;;
19782;SDS011;10051;40.294;-3.754;2024-03-29T03:34:43;0.85;;;0.50;;
19782;SDS011;10051;40.294;-3.754;2024-03-29T03:37:08;1.35;;;0.60;;
19782;SDS011;10051;40.294;-3.754;2024-03-29T03:39:34;0.70;;;0.40;;
19782;SDS011;10051;40.294;-3.754;2024-03-29T03:42:00;0.40;;;0.40;;
19782;SDS011;10051;40.294;-3.754;2024-03-29T03:44:25;0.60;;;0.60;;
19782;SDS011;10051;40.294;-3.754;2024-03-29T03:46:53;0.70;;;0.50;;
19782;SDS011;10051;40.294;-3.754;2024-03-29T03:49:19;1.17;;;0.50;;
19782;SDS011;10051;40.294;-3.754;2024-03-29T03:51:44;1.33;;;0.60;;
19782;SDS011;10051;40.294;-3.754;2024-03-29T03:54:10;1.33;;;0.50;;
19782;SDS011;10051;40.294;-3.754;2024-03-29T03:56:36;0.80;;;0.50;;
19782;SDS011;10051;40.294;-3.754;2024-03-29T03:59:01;3.30;;;0.50;;
19782;SDS011;10051;40.294;-3.754;2024-03-29T04:01:27;1.52;;;0.50;;
19782;SDS011;10051;40.294;-3.754;2024-03-29T04:03:53;1.38;;;0.52;;
19782;SDS011;10051;40.294;-3.754;2024-03-29T04:06:18;2.65;;;0.50;;
19782;SDS011;10051;40.294;-3.754;2024-03-29T04:08:44;2.08;;;0.77;;
19782;SDS011;10051;40.294;-3.754;2024-03-29T04:11:10;0.95;;;0.60;;
19782;SDS011;10051;40.294;-3.754;2024-03-29T04:13:36;0.50;;;0.50;;
19782;SDS011;10051;40.294;-3.754;2024-03-29T04:16:03;2.20;;;0.80;;
19782;SDS011;10051;40.294;-3.754;2024-03-29T04:18:33;2.15;;;0.85;;
19782;SDS011;10051;40.294;-3.754;2024-03-29T04:20:59;2.67;;;0.80;;
19782;SDS011;10051;40.294;-3.754;2024-03-29T04:23:26;4.20;;;0.80;;
19782;SDS011;10051;40.294;-3.754;2024-03-29T04:25:58;1.33;;;0.80;;
19782;SDS011;10051;40.294;-3.754;2024-03-29T04:28:25;2.15;;;0.80;;
19782;SDS011;10051;40.294;-3.754;2024-03-29T04:30:55;3.17;;;0.70;;
19782;SDS011;10051;40.294;-3.754;2024-03-29T04:33:21;1.92;;;0.90;;
19782;SDS011;10051;40.294;-3.754;2024-03-29T04:35:54;1.40;;;0.73;;
19782;SDS011;10051;40.294;-3.754;2024-03-29T04:38:20;1.27;;;0.73;;
19782;SDS011;10051;40.294;-3.754;2024-03-29T04:40:46;1.13;;;0.70;;
19782;SDS011;10051;40.294;-3.754;2024-03-29T04:43:13;1.73;;;0.70;;
19782;SDS011;10051;40.294;-3.754;2024-03-29T04:45:38;3.55;;;1.00;;
19782;SDS011;10051;40.294;-3.754;2024-03-29T04:48:04;2.67;;;0.85;;
19782;SDS011;10051;40.294;-3.754;2024-03-29T04:50:30;3.45;;;0.90;;
19782;SDS011;10051;40.294;-3.754;2024-03-29T04:52:55;2.42;;;0.82;;
19782;SDS011;10051;40.294;-3.754;2024-03-29T04:55:21;2.30;;;0.80;;
19782;SDS011;10051;40.294;-3.754;2024-03-29T04:57:47;2.28;;;0.68;;
19782;SDS011;10051;40.294;-3.754;2024-03-29T05:00:12;2.58;;;0.77;;
19782;SDS011;10051;40.294;-3.754;2024-03-29T05:02:38;2.60;;;0.70;;
19782;SDS011;10051;40.294;-3.754;2024-03-29T05:05:04;2.92;;;1.00;;
19782;SDS011;10051;40.294;-3.754;2024-03-29T05:07:30;1.98;;;0.70;;
19782;SDS011;10051;40.294;-3.754;2024-03-29T05:09:56;3.40;;;0.75;;
19782;SDS011;10051;40.294;-3.754;2024-03-29T05:12:21;1.02;;;0.60;;
19782;SDS011;10051;40.294;-3.754;2024-03-29T05:14:47;1.40;;;0.70;;
19782;SDS011;10051;40.294;-3.754;2024-03-29T05:17:14;1.20;;;0.70;;
19782;SDS011;10051;40.294;-3.754;2024-03-29T05:19:41;1.08;;;0.57;;
19782;SDS011;10051;40.294;-3.754;2024-03-29T05:22:06;1.45;;;0.50;;
19782;SDS011;10051;40.294;-3.754;2024-03-29T05:24:32;1.45;;;0.50;;
19782;SDS011;10051;40.294;-3.754;2024-03-29T05:26:58;2.70;;;0.50;;
19782;SDS011;10051;40.294;-3.754;2024-03-29T05:29:23;2.28;;;0.50;;
19782;SDS011;10051;40.294;-3.754;2024-03-29T05:31:49;1.42;;;0.60;;
19782;SDS011;10051;40.294;-3.754;2024-03-29T05:34:15;1.80;;;0.63;;
19782;SDS011;10051;40.294;-3.754;2024-03-29T05:36:40;2.95;;;0.60;;
19782;SDS011;10051;40.294;-3.754;2024-03-29T05:39:06;1.30;;;0.50;;
19782;SDS011;10051;40.294;-3.754;2024-03-29T05:41:32;2.40;;;0.60;;
19782;SDS011;10051;40.294;-3.754;2024-03-29T05:43:58;2.88;;;0.60;;
19782;SDS011;10051;40.294;-3.754;2024-03-29T05:46:23;1.13;;;0.50;;
19782;SDS011;10051;40.294;-3.754;2024-03-29T05:48:49;1.60;;;0.60;;
19782;SDS011;10051;40.294;-3.754;2024-03-29T05:51:15;2.00;;;0.50;;
19782;SDS011;10051;40.294;-3.754;2024-03-29T05:53:40;2.13;;;0.50;;
19782;SDS011;10051;40.294;-3.754;2024-03-29T05:56:06;4.88;;;0.68;;
19782;SDS011;10051;40.294;-3.754;2024-03-29T05:58:36;1.35;;;0.63;;
19782;SDS011;10051;40.294;-3.754;2024-03-29T06:01:01;1.25;;;0.47;;
19782;SDS011;10051;40.294;-3.754;2024-03-29T06:03:29;1.30;;;0.40;;
19782;SDS011;10051;40.294;-3.754;2024-03-29T06:05:55;1.60;;;0.55;;
19782;SDS011;10051;40.294;-3.754;2024-03-29T06:08:21;1.55;;;0.40;;
19782;SDS011;10051;40.294;-3.754;2024-03-29T06:10:48;3.53;;;0.45;;
19782;SDS011;10051;40.294;-3.754;2024-03-29T06:13:14;2.47;;;0.60;;
19782;SDS011;10051;40.294;-3.754;2024-03-29T06:16:14;1.55;;;0.60;;
19782;SDS011;10051;40.294;-3.754;2024-03-29T06:18:59;1.83;;;0.57;;
19782;SDS011;10051;40.294;-3.754;2024-03-29T06:21:25;1.77;;;0.70;;
19782;SDS011;10051;40.294;-3.754;2024-03-29T06:23:51;2.75;;;0.98;;
19782;SDS011;10051;40.294;-3.754;2024-03-29T06:26:16;0.80;;;0.50;;
19782;SDS011;10051;40.294;-3.754;2024-03-29T06:28:42;1.70;;;0.60;;
19782;SDS011;10051;40.294;-3.754;2024-03-29T06:31:07;2.22;;;0.57;;
19782;SDS011;10051;40.294;-3.754;2024-03-29T06:33:36;3.42;;;0.80;;
19782;SDS011;10051;40.294;-3.754;2024-03-29T06:36:04;2.92;;;0.57;;
19782;SDS011;10051;40.294;-3.754;2024-03-29T06:38:30;1.35;;;0.70;;
19782;SDS011;10051;40.294;-3.754;2024-03-29T06:40:56;1.30;;;0.88;;
19782;SDS011;10051;40.294;-3.754;2024-03-29T06:43:22;2.30;;;1.10;;
19782;SDS011;10051;40.294;-3.754;2024-03-29T06:45:50;2.03;;;1.38;;
19782;SDS011;10051;40.294;-3.754;2024-03-29T06:48:15;3.55;;;1.80;;
19782;SDS011;10051;40.294;-3.754;2024-03-29T06:50:41;7.45;;;3.40;;
19782;SDS011;10051;40.294;-3.754;2024-03-29T06:53:07;7.15;;;4.38;;
19782;SDS011;10051;40.294;-3.754;2024-03-29T06:55:34;6.80;;;4.32;;
19782;SDS011;10051;40.294;-3.754;2024-03-29T06:58:02;6.40;;;4.68;;
19782;SDS011;10051;40.294;-3.754;2024-03-29T07:00:28;8.68;;;4.57;;
19782;SDS011;10051;40.294;-3.754;2024-03-29T07:02:53;6.93;;;4.43;;
19782;SDS011;10051;40.294;-3.754;2024-03-29T07:05:19;8.57;;;5.05;;
19782;SDS011;10051;40.294;-3.754;2024-03-29T07:07:45;8.25;;;5.53;;
19782;SDS011;10051;40.294;-3.754;2024-03-29T07:10:12;8.40;;;5.10;;
19782;SDS011;10051;40.294;-3.754;2024-03-29T07:12:38;7.68;;;4.50;;
19782;SDS011;10051;40.294;-3.754;2024-03-29T07:15:04;10.95;;;4.80;;
19782;SDS011;10051;40.294;-3.754;2024-03-29T07:17:30;6.32;;;5.18;;
19782;SDS011;10051;40.294;-3.754;2024-03-29T07:19:56;7.75;;;5.57;;
19782;SDS011;10051;40.294;-3.754;2024-03-29T07:22:21;9.43;;;6.60;;
19782;SDS011;10051;40.294;-3.754;2024-03-29T07:24:47;8.20;;;6.03;;
19782;SDS011;10051;40.294;-3.754;2024-03-29T07:27:13;7.07;;;5.05;;
19782;SDS011;10051;40.294;-3.754;2024-03-29T07:29:43;6.53;;;4.22;;
19782;SDS011;10051;40.294;-3.754;2024-03-29T07:32:09;3.60;;;2.65;;
19782;SDS011;10051;40.294;-3.754;2024-03-29T07:34:35;3.33;;;2.17;;
19782;SDS011;10051;40.294;-3.754;2024-03-29T07:37:04;3.80;;;1.73;;
19782;SDS011;10051;40.294;-3.754;2024-03-29T07:39:30;1.38;;;0.93;;
19782;SDS011;10051;40.294;-3.754;2024-03-29T07:41:56;2.08;;;0.70;;
19782;SDS011;10051;40.294;-3.754;2024-03-29T07:44:24;1.42;;;0.70;;
19782;SDS011;10051;40.294;-3.754;2024-03-29T07:46:50;1.50;;;0.60;;
19782;SDS011;10051;40.294;-3.754;2024-03-29T07:49:16;3.05;;;0.57;;
19782;SDS011;10051;40.294;-3.754;2024-03-29T07:51:46;1.15;;;0.50;;
19782;SDS011;10051;40.294;-3.754;2024-03-29T07:54:14;1.52;;;0.50;;
19782;SDS011;10051;40.294;-3.754;2024-03-29T07:56:40;1.10;;;0.50;;
19782;SDS011;10051;40.294;-3.754;2024-03-29T07:59:06;2.70;;;0.50;;
19782;SDS011;10051;40.294;-3.754;2024-03-29T08:01:31;3.65;;;0.73;;
19782;SDS011;10051;40.294;-3.754;2024-03-29T08:03:57;1.92;;;0.60;;
19782;SDS011;10051;40.294;-3.754;2024-03-29T08:06:22;3.03;;;0.55;;
19782;SDS011;10051;40.294;-3.754;2024-03-29T08:08:49;1.75;;;0.65;;
19782;SDS011;10051;40.294;-3.754;2024-03-29T08:11:18;1.80;;;0.60;;
19782;SDS011;10051;40.294;-3.754;2024-03-29T08:13:43;0.65;;;0.50;;
19782;SDS011;10051;40.294;-3.754;2024-03-29T08:16:09;1.58;;;0.50;;
19782;SDS011;10051;40.294;-3.754;2024-03-29T08:18:36;4.07;;;0.80;;
19782;SDS011;10051;40.294;-3.754;2024-03-29T08:21:02;0.45;;;0.40;;
19782;SDS011;10051;40.294;-3.754;2024-03-29T08:23:28;1.20;;;0.50;;
19782;SDS011;10051;40.294;-3.754;2024-03-29T08:25:54;1.05;;;0.40;;
19782;SDS011;10051;40.294;-3.754;2024-03-29T08:28:23;0.63;;;0.38;;
19782;SDS011;10051;40.294;-3.754;2024-03-29T08:30:59;1.63;;;0.50;;
19782;SDS011;10051;40.294;-3.754;2024-03-29T08:33:25;0.50;;;0.40;;
19782;SDS011;10051;40.294;-3.754;2024-03-29T08:35:52;2.20;;;0.50;;
19782;SDS011;10051;40.294;-3.754;2024-03-29T08:38:18;1.50;;;0.50;;
19782;SDS011;10051;40.294;-3.754;2024-03-29T08:40:43;0.50;;;0.38;;
19782;SDS011;10051;40.294;-3.754;2024-03-29T08:43:11;0.40;;;0.35;;
19782;SDS011;10051;40.294;-3.754;2024-03-29T08:45:43;1.67;;;0.50;;
19782;SDS011;10051;40.294;-3.754;2024-03-29T08:48:12;1.27;;;0.60;;
19782;SDS011;10051;40.294;-3.754;2024-03-29T08:50:37;1.35;;;0.60;;
19782;SDS011;10051;40.294;-3.754;2024-03-29T08:53:03;0.88;;;0.57;;
19782;SDS011;10051;40.294;-3.754;2024-03-29T08:55:29;2.45;;;0.60;;
19782;SDS011;10051;40.294;-3.754;2024-03-29T08:57:59;0.50;;;0.40;;
19782;SDS011;10051;40.294;-3.754;2024-03-29T09:00:26;0.52;;;0.40;;
19782;SDS011;10051;40.294;-3.754;2024-03-29T09:02:53;0.75;;;0.30;;
19782;SDS011;10051;40.294;-3.754;2024-03-29T09:05:19;1.17;;;0.45;;
19782;SDS011;10051;40.294;-3.754;2024-03-29T09:07:47;0.55;;;0.35;;
19782;SDS011;10051;40.294;-3.754;2024-03-29T09:10:13;2.70;;;0.70;;
19782;SDS011;10051;40.294;-3.754;2024-03-29T09:12:39;1.27;;;0.65;;
19782;SDS011;10051;40.294;-3.754;2024-03-29T09:15:05;0.65;;;0.32;;
19782;SDS011;10051;40.294;-3.754;2024-03-29T09:17:34;0.70;;;0.40;;
19782;SDS011;10051;40.294;-3.754;2024-03-29T09:20:00;2.58;;;0.40;;
19782;SDS011;10051;40.294;-3.754;2024-03-29T09:22:26;0.75;;;0.30;;
19782;SDS011;10051;40.294;-3.754;2024-03-29T09:24:51;1.45;;;0.52;;
19782;SDS011;10051;40.294;-3.754;2024-03-29T09:27:17;1.10;;;0.50;;
19782;SDS011;10051;40.294;-3.754;2024-03-29T09:29:43;1.08;;;0.60;;
19782;SDS011;10051;40.294;-3.754;2024-03-29T09:32:13;2.58;;;0.50;;
19782;SDS011;10051;40.294;-3.754;2024-03-29T09:34:42;0.70;;;0.50;;
19782;SDS011;10051;40.294;-3.754;2024-03-29T09:37:09;1.00;;;0.40;;
19782;SDS011;10051;40.294;-3.754;2024-03-29T09:39:34;1.17;;;0.40;;
19782;SDS011;10051;40.294;-3.754;2024-03-29T09:42:00;3.22;;;0.50;;
19782;SDS011;10051;40.294;-3.754;2024-03-29T09:44:29;1.52;;;0.57;;
19782;SDS011;10051;40.294;-3.754;2024-03-29T09:46:59;1.35;;;0.70;;
19782;SDS011;10051;40.294;-3.754;2024-03-29T09:49:28;1.05;;;0.70;;
19782;SDS011;10051;40.294;-3.754;2024-03-29T09:51:56;0.68;;;0.43;;
19782;SDS011;10051;40.294;-3.754;2024-03-29T09:54:21;0.95;;;0.40;;
19782;SDS011;10051;40.294;-3.754;2024-03-29T09:56:49;0.43;;;0.30;;
19782;SDS011;10051;40.294;-3.754;2024-03-29T09:59:15;0.30;;;0.30;;
19782;SDS011;10051;40.294;-3.754;2024-03-29T10:01:41;0.88;;;0.40;;
19782;SDS011;10051;40.294;-3.754;2024-03-29T10:04:07;0.70;;;0.40;;
19782;SDS011;10051;40.294;-3.754;2024-03-29T10:06:34;0.35;;;0.20;;
19782;SDS011;10051;40.294;-3.754;2024-03-29T10:09:04;0.30;;;0.30;;
19782;SDS011;10051;40.294;-3.754;2024-03-29T10:11:30;0.20;;;0.20;;
19782;SDS011;10051;40.294;-3.754;2024-03-29T10:13:58;0.30;;;0.28;;
19782;SDS011;10051;40.294;-3.754;2024-03-29T10:16:24;0.65;;;0.32;;
19782;SDS011;10051;40.294;-3.754;2024-03-29T10:18:49;0.75;;;0.30;;
19782;SDS011;10051;40.294;-3.754;2024-03-29T10:21:15;0.80;;;0.30;;
19782;SDS011;10051;40.294;-3.754;2024-03-29T10:23:41;0.30;;;0.30;;
19782;SDS011;10051;40.294;-3.754;2024-03-29T10:26:08;0.25;;;0.25;;
19782;SDS011;10051;40.294;-3.754;2024-03-29T10:28:34;0.60;;;0.32;;
19782;SDS011;10051;40.294;-3.754;2024-03-29T10:31:05;0.65;;;0.40;;
19782;SDS011;10051;40.294;-3.754;2024-03-29T10:33:32;2.05;;;0.43;;
19782;SDS011;10051;40.294;-3.754;2024-03-29T10:35:59;0.30;;;0.20;;
19782;SDS011;10051;40.294;-3.754;2024-03-29T10:38:26;0.45;;;0.30;;
19782;SDS011;10051;40.294;-3.754;2024-03-29T10:40:52;0.30;;;0.30;;
19782;SDS011;10051;40.294;-3.754;2024-03-29T10:43:18;0.20;;;0.20;;
19782;SDS011;10051;40.294;-3.754;2024-03-29T10:45:48;2.13;;;0.20;;
19782;SDS011;10051;40.294;-3.754;2024-03-29T10:48:20;0.20;;;0.20;;
19782;SDS011;10051;40.294;-3.754;2024-03-29T10:50:48;0.95;;;0.20;;
19782;SDS011;10051;40.294;-3.754;2024-03-29T10:53:16;1.65;;;0.20;;
19782;SDS011;10051;40.294;-3.754;2024-03-29T10:55:42;0.50;;;0.30;;
19782;SDS011;10051;40.294;-3.754;2024-03-29T10:58:10;0.20;;;0.20;;
19782;SDS011;10051;40.294;-3.754;2024-03-29T11:00:42;0.50;;;0.50;;
19782;SDS011;10051;40.294;-3.754;2024-03-29T11:03:20;2.38;;;1.50;;
19782;SDS011;10051;40.294;-3.754;2024-03-29T11:05:52;4.93;;;3.05;;
19782;SDS011;10051;40.294;-3.754;2024-03-29T11:08:26;1.33;;;0.77;;
19782;SDS011;10051;40.294;-3.754;2024-03-29T11:10:57;1.27;;;0.60;;
19782;SDS011;10051;40.294;-3.754;2024-03-29T11:16:12;1.00;;;0.50;;
19782;SDS011;10051;40.294;-3.754;2024-03-29T11:18:41;1.77;;;0.50;;
19782;SDS011;10051;40.294;-3.754;2024-03-29T11:21:08;2.90;;;0.80;;
19782;SDS011;10051;40.294;-3.754;2024-03-29T11:23:39;2.67;;;1.30;;
19782;SDS011;10051;40.294;-3.754;2024-03-29T11:26:04;1.23;;;0.70;;
19782;SDS011;10051;40.294;-3.754;2024-03-29T11:28:32;1.70;;;0.50;;
19782;SDS011;10051;40.294;-3.754;2024-03-29T11:31:06;0.80;;;0.40;;
19782;SDS011;10051;40.294;-3.754;2024-03-29T11:33:34;0.88;;;0.40;;
19782;SDS011;10051;40.294;-3.754;2024-03-29T11:36:11;0.55;;;0.20;;
19782;SDS011;10051;40.294;-3.754;2024-03-29T11:38:38;0.35;;;0.30;;
19782;SDS011;10051;40.294;-3.754;2024-03-29T11:41:16;0.52;;;0.30;;
19782;SDS011;10051;40.294;-3.754;2024-03-29T11:43:43;0.22;;;0.22;;
19782;SDS011;10051;40.294;-3.754;2024-03-29T11:46:18;0.80;;;0.30;;
19782;SDS011;10051;40.294;-3.754;2024-03-29T11:48:45;0.88;;;0.40;;
19782;SDS011;10051;40.294;-3.754;2024-03-29T11:51:13;0.50;;;0.40;;
19782;SDS011;10051;40.294;-3.754;2024-03-29T11:53:43;0.40;;;0.30;;
19782;SDS011;10051;40.294;-3.754;2024-03-29T11:56:09;1.50;;;0.30;;
19782;SDS011;10051;40.294;-3.754;2024-03-29T11:58:39;0.73;;;0.20;;
19782;SDS011;10051;40.294;-3.754;2024-03-29T12:01:05;1.08;;;0.30;;
19782;SDS011;10051;40.294;-3.754;2024-03-29T12:03:31;1.60;;;0.80;;
19782;SDS011;10051;40.294;-3.754;2024-03-29T12:05:59;1.40;;;1.00;;
19782;SDS011;10051;40.294;-3.754;2024-03-29T12:08:31;1.10;;;0.80;;
19782;SDS011;10051;40.294;-3.754;2024-03-29T12:11:04;1.00;;;0.50;;
19782;SDS011;10051;40.294;-3.754;2024-03-29T12:13:30;0.70;;;0.60;;
19782;SDS011;10051;40.294;-3.754;2024-03-29T12:15:56;1.55;;;0.70;;
19782;SDS011;10051;40.294;-3.754;2024-03-29T12:18:23;1.00;;;0.70;;
19782;SDS011;10051;40.294;-3.754;2024-03-29T12:20:53;1.60;;;0.63;;
19782;SDS011;10051;40.294;-3.754;2024-03-29T12:23:19;1.25;;;0.50;;
19782;SDS011;10051;40.294;-3.754;2024-03-29T12:25:47;0.40;;;0.40;;
19782;SDS011;10051;40.294;-3.754;2024-03-29T12:28:14;2.35;;;0.60;;
19782;SDS011;10051;40.294;-3.754;2024-03-29T12:30:45;0.73;;;0.40;;
19782;SDS011;10051;40.294;-3.754;2024-03-29T12:33:14;0.80;;;0.47;;
19782;SDS011;10051;40.294;-3.754;2024-03-29T12:35:44;2.28;;;0.50;;
19782;SDS011;10051;40.294;-3.754;2024-03-29T12:38:13;0.82;;;0.50;;
19782;SDS011;10051;40.294;-3.754;2024-03-29T12:40:42;0.40;;;0.40;;
19782;SDS011;10051;40.294;-3.754;2024-03-29T12:43:10;0.40;;;0.40;;
19782;SDS011;10051;40.294;-3.754;2024-03-29T12:45:37;0.55;;;0.40;;
19782;SDS011;10051;40.294;-3.754;2024-03-29T12:48:14;1.95;;;0.40;;
19782;SDS011;10051;40.294;-3.754;2024-03-29T12:50:41;1.15;;;0.60;;
19782;SDS011;10051;40.294;-3.754;2024-03-29T12:53:09;0.93;;;0.60;;
19782;SDS011;10051;40.294;-3.754;2024-03-29T12:55:36;1.15;;;0.60;;
19782;SDS011;10051;40.294;-3.754;2024-03-29T12:58:04;1.50;;;0.70;;
19782;SDS011;10051;40.294;-3.754;2024-03-29T13:00:34;1.30;;;0.60;;
19782;SDS011;10051;40.294;-3.754;2024-03-29T13:03:03;1.50;;;1.00;;
19782;SDS011;10051;40.294;-3.754;2024-03-29T13:05:30;0.60;;;0.50;;
19782;SDS011;10051;40.294;-3.754;2024-03-29T13:08:03;0.75;;;0.50;;
19782;SDS011;10051;40.294;-3.754;2024-03-29T13:10:36;1.92;;;0.50;;
19782;SDS011;10051;40.294;-3.754;2024-03-29T13:13:05;0.73;;;0.50;;
19782;SDS011;10051;40.294;-3.754;2024-03-29T13:15:32;0.93;;;0.50;;
19782;SDS011;10051;40.294;-3.754;2024-03-29T13:17:59;2.45;;;0.65;;
19782;SDS011;10051;40.294;-3.754;2024-03-29T13:20:25;0.90;;;0.60;;
19782;SDS011;10051;40.294;-3.754;2024-03-29T13:22:51;1.83;;;0.50;;
19782;SDS011;10051;40.294;-3.754;2024-03-29T13:25:19;0.85;;;0.70;;
19782;SDS011;10051;40.294;-3.754;2024-03-29T13:27:46;0.95;;;0.70;;
19782;SDS011;10051;40.294;-3.754;2024-03-29T13:30:19;0.90;;;0.70;;
19782;SDS011;10051;40.294;-3.754;2024-03-29T13:32:49;0.52;;;0.50;;
19782;SDS011;10051;40.294;-3.754;2024-03-29T13:35:15;1.50;;;0.68;;
19782;SDS011;10051;40.294;-3.754;2024-03-29T13:37:44;1.67;;;0.80;;
19782;SDS011;10051;40.294;-3.754;2024-03-29T13:40:14;1.00;;;0.60;;
19782;SDS011;10051;40.294;-3.754;2024-03-29T13:42:40;0.90;;;0.70;;
19782;SDS011;10051;40.294;-3.754;2024-03-29T13:45:07;1.15;;;0.70;;
19782;SDS011;10051;40.294;-3.754;2024-03-29T13:47:39;1.08;;;0.60;;
19782;SDS011;10051;40.294;-3.754;2024-03-29T13:50:08;0.75;;;0.60;;
19782;SDS011;10051;40.294;-3.754;2024-03-29T13:52:36;1.38;;;0.70;;
19782;SDS011;10051;40.294;-3.754;2024-03-29T13:55:02;1.42;;;0.70;;
19782;SDS011;10051;40.294;-3.754;2024-03-29T13:57:30;0.90;;;0.80;;
19782;SDS011;10051;40.294;-3.754;2024-03-29T14:00:00;1.17;;;0.68;;
19782;SDS011;10051;40.294;-3.754;2024-03-29T14:02:26;1.60;;;0.60;;
19782;SDS011;10051;40.294;-3.754;2024-03-29T14:04:53;0.47;;;0.40;;
19782;SDS011;10051;40.294;-3.754;2024-03-29T14:07:19;1.35;;;0.50;;
19782;SDS011;10051;40.294;-3.754;2024-03-29T14:09:45;0.60;;;0.40;;
19782;SDS011;10051;40.294;-3.754;2024-03-29T14:12:11;0.57;;;0.43;;
19782;SDS011;10051;40.294;-3.754;2024-03-29T14:14:42;1.77;;;0.40;;
19782;SDS011;10051;40.294;-3.754;2024-03-29T14:17:08;0.50;;;0.50;;
19782;SDS011;10051;40.294;-3.754;2024-03-29T14:19:37;0.55;;;0.50;;
19782;SDS011;10051;40.294;-3.754;2024-03-29T14:22:02;0.47;;;0.47;;
19782;SDS011;10051;40.294;-3.754;2024-03-29T14:24:29;2.10;;;0.70;;
19782;SDS011;10051;40.294;-3.754;2024-03-29T14:26:58;1.88;;;0.70;;
19782;SDS011;10051;40.294;-3.754;2024-03-29T14:29:23;0.80;;;0.50;;
19782;SDS011;10051;40.294;-3.754;2024-03-29T14:31:49;1.17;;;0.60;;
19782;SDS011;10051;40.294;-3.754;2024-03-29T14:34:16;1.00;;;0.70;;
19782;SDS011;10051;40.294;-3.754;2024-03-29T14:36:42;1.42;;;0.70;;